sensor_id;sensor_type;location;lat;lon;timestamp;P1;durP1;ratioP1;P2;durP2;ratioP2
35290;SDS011;21411;50.024;19.220;2022-12-24T00:00:20;108.90;;;89.10;;
35290;SDS011;21411;50.024;19.220;2022-12-24T00:03:07;97.00;;;74.90;;
35290;SDS011;21411;50.024;19.220;2022-12-24T00:05:33;89.70;;;70.10;;
35290;SDS011;21411;50.024;19.220;2022-12-24T00:07:59;92.80;;;73.80;;
35290;SDS011;21411;50.024;19.220;2022-12-24T00:10:27;85.20;;;70.90;;
35290;SDS011;21411;50.024;19.220;2022-12-24T00:12:53;91.30;;;72.90;;
35290;SDS011;21411;50.024;19.220;2022-12-24T00:15:19;88.00;;;70.90;;
35290;SDS011;21411;50.024;19.220;2022-12-24T00:17:45;91.10;;;72.90;;
35290;SDS011;21411;50.024;19.220;2022-12-24T00:20:11;83.70;;;67.90;;
35290;SDS011;21411;50.024;19.220;2022-12-24T00:22:37;76.80;;;61.00;;
35290;SDS011;21411;50.024;19.220;2022-12-24T00:25:03;75.40;;;60.40;;
35290;SDS011;21411;50.024;19.220;2022-12-24T00:27:29;76.10;;;63.10;;
35290;SDS011;21411;50.024;19.220;2022-12-24T00:29:55;75.10;;;57.50;;
35290;SDS011;21411;50.024;19.220;2022-12-24T00:32:21;68.60;;;55.40;;
35290;SDS011;21411;50.024;19.220;2022-12-24T00:34:48;54.70;;;41.80;;
35290;SDS011;21411;50.024;19.220;2022-12-24T00:37:13;59.80;;;47.30;;
35290;SDS011;21411;50.024;19.220;2022-12-24T00:39:39;55.90;;;45.50;;
35290;SDS011;21411;50.024;19.220;2022-12-24T00:42:06;56.80;;;45.70;;
35290;SDS011;21411;50.024;19.220;2022-12-24T00:44:32;57.80;;;47.20;;
35290;SDS011;21411;50.024;19.220;2022-12-24T00:46:58;44.70;;;37.00;;
35290;SDS011;21411;50.024;19.220;2022-12-24T00:49:25;52.00;;;41.40;;
35290;SDS011;21411;50.024;19.220;2022-12-24T00:51:50;56.00;;;45.60;;
35290;SDS011;21411;50.024;19.220;2022-12-24T00:54:16;56.10;;;44.90;;
35290;SDS011;21411;50.024;19.220;2022-12-24T00:56:42;55.70;;;47.00;;
35290;SDS011;21411;50.024;19.220;2022-12-24T00:59:08;53.60;;;42.60;;
35290;SDS011;21411;50.024;19.220;2022-12-24T01:01:34;54.00;;;44.00;;
35290;SDS011;21411;50.024;19.220;2022-12-24T01:04:01;55.70;;;46.90;;
35290;SDS011;21411;50.024;19.220;2022-12-24T01:06:46;49.50;;;42.70;;
35290;SDS011;21411;50.024;19.220;2022-12-24T01:09:12;46.60;;;39.90;;
35290;SDS011;21411;50.024;19.220;2022-12-24T01:11:38;49.30;;;38.40;;
35290;SDS011;21411;50.024;19.220;2022-12-24T01:14:04;45.80;;;38.20;;
35290;SDS011;21411;50.024;19.220;2022-12-24T01:16:32;44.10;;;38.20;;
35290;SDS011;21411;50.024;19.220;2022-12-24T01:18:58;43.90;;;37.90;;
35290;SDS011;21411;50.024;19.220;2022-12-24T01:21:24;42.40;;;37.20;;
35290;SDS011;21411;50.024;19.220;2022-12-24T01:23:51;46.30;;;39.80;;
35290;SDS011;21411;50.024;19.220;2022-12-24T01:26:17;44.70;;;39.90;;
35290;SDS011;21411;50.024;19.220;2022-12-24T01:28:43;49.20;;;39.80;;
35290;SDS011;21411;50.024;19.220;2022-12-24T01:31:11;41.30;;;36.90;;
35290;SDS011;21411;50.024;19.220;2022-12-24T01:33:38;40.00;;;35.30;;
35290;SDS011;21411;50.024;19.220;2022-12-24T01:36:05;37.10;;;33.20;;
35290;SDS011;21411;50.024;19.220;2022-12-24T01:38:31;36.20;;;32.10;;
35290;SDS011;21411;50.024;19.220;2022-12-24T01:40:57;37.30;;;32.20;;
35290;SDS011;21411;50.024;19.220;2022-12-24T01:43:41;38.40;;;34.20;;
35290;SDS011;21411;50.024;19.220;2022-12-24T01:46:27;43.30;;;35.80;;
35290;SDS011;21411;50.024;19.220;2022-12-24T01:49:01;38.50;;;34.30;;
35290;SDS011;21411;50.024;19.220;2022-12-24T01:54:09;41.60;;;37.30;;
35290;SDS011;21411;50.024;19.220;2022-12-24T01:56:42;41.80;;;37.40;;
35290;SDS011;21411;50.024;19.220;2022-12-24T01:59:12;37.70;;;33.70;;
35290;SDS011;21411;50.024;19.220;2022-12-24T02:01:41;38.40;;;33.10;;
35290;SDS011;21411;50.024;19.220;2022-12-24T02:06:58;35.50;;;31.40;;
35290;SDS011;21411;50.024;19.220;2022-12-24T02:09:25;38.80;;;33.30;;
35290;SDS011;21411;50.024;19.220;2022-12-24T02:11:51;36.60;;;32.10;;
35290;SDS011;21411;50.024;19.220;2022-12-24T02:14:17;42.30;;;35.70;;
35290;SDS011;21411;50.024;19.220;2022-12-24T02:22:15;74.90;;;38.00;;
35290;SDS011;21411;50.024;19.220;2022-12-24T02:33:16;54.00;;;36.80;;
35290;SDS011;21411;50.024;19.220;2022-12-24T02:39:09;44.70;;;38.00;;
35290;SDS011;21411;50.024;19.220;2022-12-24T02:41:41;49.00;;;39.20;;
35290;SDS011;21411;50.024;19.220;2022-12-24T02:44:29;52.20;;;38.50;;
35290;SDS011;21411;50.024;19.220;2022-12-24T02:47:00;49.30;;;38.10;;
35290;SDS011;21411;50.024;19.220;2022-12-24T02:49:29;49.40;;;37.80;;
35290;SDS011;21411;50.024;19.220;2022-12-24T02:51:55;47.30;;;37.40;;
35290;SDS011;21411;50.024;19.220;2022-12-24T02:54:21;43.80;;;35.50;;
35290;SDS011;21411;50.024;19.220;2022-12-24T02:56:53;42.40;;;35.40;;
35290;SDS011;21411;50.024;19.220;2022-12-24T02:59:38;48.00;;;36.70;;
35290;SDS011;21411;50.024;19.220;2022-12-24T03:02:26;44.70;;;35.70;;
35290;SDS011;21411;50.024;19.220;2022-12-24T03:04:58;46.40;;;38.00;;
35290;SDS011;21411;50.024;19.220;2022-12-24T03:07:43;52.70;;;37.10;;
35290;SDS011;21411;50.024;19.220;2022-12-24T03:10:20;44.60;;;33.50;;
35290;SDS011;21411;50.024;19.220;2022-12-24T03:12:56;44.70;;;33.80;;
35290;SDS011;21411;50.024;19.220;2022-12-24T03:15:28;49.00;;;37.00;;
35290;SDS011;21411;50.024;19.220;2022-12-24T03:17:57;42.50;;;35.50;;
35290;SDS011;21411;50.024;19.220;2022-12-24T03:20:29;47.20;;;35.60;;
35290;SDS011;21411;50.024;19.220;2022-12-24T03:23:01;46.10;;;36.40;;
35290;SDS011;21411;50.024;19.220;2022-12-24T03:25:28;45.10;;;36.30;;
35290;SDS011;21411;50.024;19.220;2022-12-24T03:27:55;37.50;;;32.90;;
35290;SDS011;21411;50.024;19.220;2022-12-24T03:30:22;34.80;;;31.00;;
35290;SDS011;21411;50.024;19.220;2022-12-24T03:32:48;31.50;;;26.70;;
35290;SDS011;21411;50.024;19.220;2022-12-24T03:35:14;26.80;;;24.00;;
35290;SDS011;21411;50.024;19.220;2022-12-24T03:37:40;23.90;;;21.00;;
35290;SDS011;21411;50.024;19.220;2022-12-24T03:40:06;21.70;;;19.00;;
35290;SDS011;21411;50.024;19.220;2022-12-24T03:42:33;24.80;;;18.20;;
35290;SDS011;21411;50.024;19.220;2022-12-24T03:44:59;23.60;;;18.90;;
35290;SDS011;21411;50.024;19.220;2022-12-24T03:47:25;23.30;;;18.60;;
35290;SDS011;21411;50.024;19.220;2022-12-24T03:49:51;19.40;;;16.50;;
35290;SDS011;21411;50.024;19.220;2022-12-24T03:52:18;21.90;;;17.10;;
35290;SDS011;21411;50.024;19.220;2022-12-24T03:54:43;17.70;;;15.80;;
35290;SDS011;21411;50.024;19.220;2022-12-24T03:57:09;19.30;;;15.90;;
35290;SDS011;21411;50.024;19.220;2022-12-24T03:59:36;16.30;;;14.50;;
35290;SDS011;21411;50.024;19.220;2022-12-24T04:02:02;14.70;;;12.90;;
35290;SDS011;21411;50.024;19.220;2022-12-24T04:04:27;16.00;;;13.60;;
35290;SDS011;21411;50.024;19.220;2022-12-24T04:06:54;14.50;;;12.90;;
35290;SDS011;21411;50.024;19.220;2022-12-24T04:09:20;10.70;;;9.60;;
35290;SDS011;21411;50.024;19.220;2022-12-24T04:11:46;12.90;;;11.60;;
35290;SDS011;21411;50.024;19.220;2022-12-24T04:14:12;12.70;;;11.40;;
35290;SDS011;21411;50.024;19.220;2022-12-24T04:16:38;13.50;;;12.30;;
35290;SDS011;21411;50.024;19.220;2022-12-24T04:19:04;13.20;;;11.80;;
35290;SDS011;21411;50.024;19.220;2022-12-24T04:21:31;12.80;;;11.60;;
35290;SDS011;21411;50.024;19.220;2022-12-24T04:23:56;12.20;;;11.10;;
35290;SDS011;21411;50.024;19.220;2022-12-24T04:26:22;11.80;;;10.60;;
35290;SDS011;21411;50.024;19.220;2022-12-24T04:28:48;11.90;;;10.70;;
35290;SDS011;21411;50.024;19.220;2022-12-24T04:31:15;12.20;;;11.00;;
35290;SDS011;21411;50.024;19.220;2022-12-24T04:33:42;12.40;;;11.20;;
35290;SDS011;21411;50.024;19.220;2022-12-24T04:36:11;12.10;;;10.80;;
35290;SDS011;21411;50.024;19.220;2022-12-24T04:38:38;13.00;;;11.80;;
35290;SDS011;21411;50.024;19.220;2022-12-24T04:41:06;12.70;;;11.40;;
35290;SDS011;21411;50.024;19.220;2022-12-24T04:43:35;15.00;;;13.60;;
35290;SDS011;21411;50.024;19.220;2022-12-24T04:46:08;13.80;;;12.50;;
35290;SDS011;21411;50.024;19.220;2022-12-24T04:48:37;15.10;;;13.70;;
35290;SDS011;21411;50.024;19.220;2022-12-24T04:51:04;15.30;;;13.80;;
35290;SDS011;21411;50.024;19.220;2022-12-24T04:53:31;15.00;;;13.70;;
35290;SDS011;21411;50.024;19.220;2022-12-24T04:55:58;16.90;;;15.10;;
35290;SDS011;21411;50.024;19.220;2022-12-24T04:58:24;15.90;;;14.30;;
35290;SDS011;21411;50.024;19.220;2022-12-24T05:00:51;15.00;;;13.50;;
35290;SDS011;21411;50.024;19.220;2022-12-24T05:03:18;15.30;;;13.90;;
35290;SDS011;21411;50.024;19.220;2022-12-24T05:05:44;16.50;;;15.00;;
35290;SDS011;21411;50.024;19.220;2022-12-24T05:08:10;15.30;;;13.80;;
35290;SDS011;21411;50.024;19.220;2022-12-24T05:10:37;16.60;;;14.90;;
35290;SDS011;21411;50.024;19.220;2022-12-24T05:13:03;16.60;;;14.80;;
35290;SDS011;21411;50.024;19.220;2022-12-24T05:15:29;15.80;;;14.30;;
35290;SDS011;21411;50.024;19.220;2022-12-24T05:17:55;15.30;;;13.80;;
35290;SDS011;21411;50.024;19.220;2022-12-24T05:20:23;15.70;;;14.20;;
35290;SDS011;21411;50.024;19.220;2022-12-24T05:22:49;15.50;;;14.00;;
35290;SDS011;21411;50.024;19.220;2022-12-24T05:25:35;14.70;;;13.20;;
35290;SDS011;21411;50.024;19.220;2022-12-24T05:28:22;16.20;;;14.60;;
35290;SDS011;21411;50.024;19.220;2022-12-24T05:30:49;16.50;;;14.90;;
35290;SDS011;21411;50.024;19.220;2022-12-24T05:33:15;16.60;;;14.90;;
35290;SDS011;21411;50.024;19.220;2022-12-24T05:35:41;17.40;;;15.70;;
35290;SDS011;21411;50.024;19.220;2022-12-24T05:38:08;17.00;;;15.30;;
35290;SDS011;21411;50.024;19.220;2022-12-24T05:40:34;18.00;;;16.20;;
35290;SDS011;21411;50.024;19.220;2022-12-24T05:43:00;15.20;;;13.60;;
35290;SDS011;21411;50.024;19.220;2022-12-24T05:45:27;15.80;;;14.30;;
35290;SDS011;21411;50.024;19.220;2022-12-24T05:47:53;15.60;;;14.10;;
35290;SDS011;21411;50.024;19.220;2022-12-24T05:50:19;15.40;;;13.80;;
35290;SDS011;21411;50.024;19.220;2022-12-24T05:52:45;15.80;;;14.20;;
35290;SDS011;21411;50.024;19.220;2022-12-24T05:55:11;18.30;;;16.50;;
35290;SDS011;21411;50.024;19.220;2022-12-24T05:57:38;15.10;;;13.60;;
35290;SDS011;21411;50.024;19.220;2022-12-24T06:00:09;18.30;;;16.40;;
35290;SDS011;21411;50.024;19.220;2022-12-24T06:02:36;16.40;;;14.80;;
35290;SDS011;21411;50.024;19.220;2022-12-24T06:05:05;16.20;;;14.70;;
35290;SDS011;21411;50.024;19.220;2022-12-24T06:07:31;14.60;;;13.10;;
35290;SDS011;21411;50.024;19.220;2022-12-24T06:09:57;14.60;;;13.10;;
35290;SDS011;21411;50.024;19.220;2022-12-24T06:12:23;14.30;;;13.00;;
35290;SDS011;21411;50.024;19.220;2022-12-24T06:14:49;14.70;;;13.30;;
35290;SDS011;21411;50.024;19.220;2022-12-24T06:17:15;14.50;;;13.00;;
35290;SDS011;21411;50.024;19.220;2022-12-24T06:19:41;14.70;;;13.20;;
35290;SDS011;21411;50.024;19.220;2022-12-24T06:22:07;15.10;;;13.50;;
35290;SDS011;21411;50.024;19.220;2022-12-24T06:24:33;15.10;;;13.60;;
35290;SDS011;21411;50.024;19.220;2022-12-24T06:26:59;17.70;;;15.90;;
35290;SDS011;21411;50.024;19.220;2022-12-24T06:29:25;17.70;;;15.90;;
35290;SDS011;21411;50.024;19.220;2022-12-24T06:31:51;16.30;;;14.80;;
35290;SDS011;21411;50.024;19.220;2022-12-24T06:34:17;16.80;;;15.20;;
35290;SDS011;21411;50.024;19.220;2022-12-24T06:36:43;17.70;;;15.80;;
35290;SDS011;21411;50.024;19.220;2022-12-24T06:39:09;16.10;;;14.50;;
35290;SDS011;21411;50.024;19.220;2022-12-24T06:41:35;17.80;;;15.50;;
35290;SDS011;21411;50.024;19.220;2022-12-24T06:44:01;15.80;;;14.30;;
35290;SDS011;21411;50.024;19.220;2022-12-24T06:46:27;14.60;;;13.10;;
35290;SDS011;21411;50.024;19.220;2022-12-24T06:48:53;14.60;;;13.20;;
35290;SDS011;21411;50.024;19.220;2022-12-24T06:51:19;13.90;;;12.50;;
35290;SDS011;21411;50.024;19.220;2022-12-24T06:53:46;12.40;;;11.10;;
35290;SDS011;21411;50.024;19.220;2022-12-24T06:56:16;12.40;;;11.20;;
35290;SDS011;21411;50.024;19.220;2022-12-24T06:58:43;12.30;;;11.20;;
35290;SDS011;21411;50.024;19.220;2022-12-24T07:01:10;12.00;;;10.80;;
35290;SDS011;21411;50.024;19.220;2022-12-24T07:03:39;12.00;;;10.80;;
35290;SDS011;21411;50.024;19.220;2022-12-24T07:06:05;12.10;;;10.90;;
35290;SDS011;21411;50.024;19.220;2022-12-24T07:08:32;10.10;;;9.10;;
35290;SDS011;21411;50.024;19.220;2022-12-24T07:11:01;10.30;;;9.20;;
35290;SDS011;21411;50.024;19.220;2022-12-24T07:13:27;9.40;;;8.40;;
35290;SDS011;21411;50.024;19.220;2022-12-24T07:16:00;16.60;;;12.80;;
35290;SDS011;21411;50.024;19.220;2022-12-24T07:18:29;37.40;;;22.20;;
35290;SDS011;21411;50.024;19.220;2022-12-24T07:20:55;61.00;;;32.50;;
35290;SDS011;21411;50.024;19.220;2022-12-24T07:23:22;49.80;;;25.80;;
35290;SDS011;21411;50.024;19.220;2022-12-24T07:25:48;54.80;;;32.10;;
35290;SDS011;21411;50.024;19.220;2022-12-24T07:28:14;38.90;;;27.50;;
35290;SDS011;21411;50.024;19.220;2022-12-24T07:30:40;27.10;;;24.10;;
35290;SDS011;21411;50.024;19.220;2022-12-24T07:33:07;22.10;;;19.80;;
35290;SDS011;21411;50.024;19.220;2022-12-24T07:35:33;24.50;;;17.40;;
35290;SDS011;21411;50.024;19.220;2022-12-24T07:37:59;17.50;;;13.00;;
35290;SDS011;21411;50.024;19.220;2022-12-24T07:40:26;25.80;;;18.00;;
35290;SDS011;21411;50.024;19.220;2022-12-24T07:42:53;21.00;;;15.10;;
35290;SDS011;21411;50.024;19.220;2022-12-24T07:45:18;21.10;;;14.30;;
35290;SDS011;21411;50.024;19.220;2022-12-24T07:47:45;18.50;;;12.10;;
35290;SDS011;21411;50.024;19.220;2022-12-24T07:50:14;17.60;;;13.10;;
35290;SDS011;21411;50.024;19.220;2022-12-24T07:52:40;10.30;;;9.20;;
35290;SDS011;21411;50.024;19.220;2022-12-24T07:55:06;9.40;;;7.60;;
35290;SDS011;21411;50.024;19.220;2022-12-24T07:57:57;8.80;;;7.50;;
35290;SDS011;21411;50.024;19.220;2022-12-24T08:00:24;9.70;;;8.50;;
35290;SDS011;21411;50.024;19.220;2022-12-24T08:02:50;8.90;;;6.80;;
35290;SDS011;21411;50.024;19.220;2022-12-24T08:05:16;9.80;;;8.80;;
35290;SDS011;21411;50.024;19.220;2022-12-24T08:07:43;10.10;;;9.00;;
35290;SDS011;21411;50.024;19.220;2022-12-24T08:10:09;10.90;;;8.90;;
35290;SDS011;21411;50.024;19.220;2022-12-24T08:12:37;10.80;;;8.60;;
35290;SDS011;21411;50.024;19.220;2022-12-24T08:15:08;7.20;;;6.40;;
35290;SDS011;21411;50.024;19.220;2022-12-24T08:17:34;11.10;;;7.90;;
35290;SDS011;21411;50.024;19.220;2022-12-24T08:20:01;6.60;;;5.90;;
35290;SDS011;21411;50.024;19.220;2022-12-24T08:22:28;6.30;;;4.80;;
35290;SDS011;21411;50.024;19.220;2022-12-24T08:24:54;8.10;;;6.80;;
35290;SDS011;21411;50.024;19.220;2022-12-24T08:27:21;7.00;;;5.10;;
35290;SDS011;21411;50.024;19.220;2022-12-24T08:29:47;9.10;;;5.60;;
35290;SDS011;21411;50.024;19.220;2022-12-24T08:32:13;8.10;;;5.60;;
35290;SDS011;21411;50.024;19.220;2022-12-24T08:34:39;7.90;;;5.50;;
35290;SDS011;21411;50.024;19.220;2022-12-24T08:37:05;9.40;;;6.00;;
35290;SDS011;21411;50.024;19.220;2022-12-24T08:39:31;8.80;;;6.70;;
35290;SDS011;21411;50.024;19.220;2022-12-24T08:41:57;9.10;;;6.20;;
35290;SDS011;21411;50.024;19.220;2022-12-24T08:44:24;11.80;;;8.00;;
35290;SDS011;21411;50.024;19.220;2022-12-24T08:46:50;8.50;;;6.80;;
35290;SDS011;21411;50.024;19.220;2022-12-24T08:49:16;10.70;;;7.50;;
35290;SDS011;21411;50.024;19.220;2022-12-24T08:51:42;9.90;;;7.20;;
35290;SDS011;21411;50.024;19.220;2022-12-24T08:54:08;8.90;;;6.70;;
35290;SDS011;21411;50.024;19.220;2022-12-24T08:56:34;9.10;;;6.30;;
35290;SDS011;21411;50.024;19.220;2022-12-24T08:59:00;9.80;;;6.80;;
35290;SDS011;21411;50.024;19.220;2022-12-24T09:01:27;8.70;;;6.10;;
35290;SDS011;21411;50.024;19.220;2022-12-24T09:03:53;8.60;;;6.20;;
35290;SDS011;21411;50.024;19.220;2022-12-24T09:06:19;9.40;;;5.90;;
35290;SDS011;21411;50.024;19.220;2022-12-24T09:08:46;7.90;;;5.50;;
35290;SDS011;21411;50.024;19.220;2022-12-24T09:11:13;8.10;;;5.30;;
35290;SDS011;21411;50.024;19.220;2022-12-24T09:13:42;6.20;;;4.30;;
35290;SDS011;21411;50.024;19.220;2022-12-24T09:16:09;6.80;;;4.60;;
35290;SDS011;21411;50.024;19.220;2022-12-24T09:18:36;6.70;;;4.40;;
35290;SDS011;21411;50.024;19.220;2022-12-24T09:21:05;9.30;;;4.70;;
35290;SDS011;21411;50.024;19.220;2022-12-24T09:23:36;5.40;;;4.40;;
35290;SDS011;21411;50.024;19.220;2022-12-24T09:26:09;7.00;;;4.30;;
35290;SDS011;21411;50.024;19.220;2022-12-24T09:28:39;9.80;;;4.80;;
35290;SDS011;21411;50.024;19.220;2022-12-24T09:31:05;5.50;;;4.00;;
35290;SDS011;21411;50.024;19.220;2022-12-24T09:33:33;5.50;;;4.80;;
35290;SDS011;21411;50.024;19.220;2022-12-24T09:36:01;4.80;;;4.00;;
35290;SDS011;21411;50.024;19.220;2022-12-24T09:38:28;5.50;;;3.80;;
35290;SDS011;21411;50.024;19.220;2022-12-24T09:40:55;9.10;;;4.50;;
35290;SDS011;21411;50.024;19.220;2022-12-24T09:43:23;6.30;;;4.30;;
35290;SDS011;21411;50.024;19.220;2022-12-24T09:48:30;6.80;;;3.90;;
35290;SDS011;21411;50.024;19.220;2022-12-24T09:51:01;5.70;;;4.10;;
35290;SDS011;21411;50.024;19.220;2022-12-24T09:53:39;6.80;;;4.30;;
35290;SDS011;21411;50.024;19.220;2022-12-24T09:58:47;8.00;;;4.70;;
35290;SDS011;21411;50.024;19.220;2022-12-24T10:01:17;9.70;;;4.20;;
35290;SDS011;21411;50.024;19.220;2022-12-24T10:03:44;5.60;;;4.30;;
35290;SDS011;21411;50.024;19.220;2022-12-24T10:06:32;8.20;;;4.90;;
35290;SDS011;21411;50.024;19.220;2022-12-24T10:14:46;10.00;;;4.60;;
35290;SDS011;21411;50.024;19.220;2022-12-24T10:28:45;10.70;;;5.50;;
35290;SDS011;21411;50.024;19.220;2022-12-24T10:31:14;9.40;;;4.80;;
35290;SDS011;21411;50.024;19.220;2022-12-24T10:33:41;8.60;;;4.40;;
35290;SDS011;21411;50.024;19.220;2022-12-24T10:36:17;6.60;;;4.30;;
35290;SDS011;21411;50.024;19.220;2022-12-24T10:38:46;7.90;;;4.70;;
35290;SDS011;21411;50.024;19.220;2022-12-24T10:41:13;8.50;;;4.80;;
35290;SDS011;21411;50.024;19.220;2022-12-24T10:43:40;6.90;;;4.40;;
35290;SDS011;21411;50.024;19.220;2022-12-24T10:46:19;8.70;;;5.90;;
35290;SDS011;21411;50.024;19.220;2022-12-24T10:51:28;13.40;;;7.60;;
35290;SDS011;21411;50.024;19.220;2022-12-24T10:56:43;9.40;;;6.20;;
35290;SDS011;21411;50.024;19.220;2022-12-24T11:04:54;9.50;;;5.70;;
35290;SDS011;21411;50.024;19.220;2022-12-24T11:07:21;12.40;;;6.00;;
35290;SDS011;21411;50.024;19.220;2022-12-24T11:12:24;11.70;;;7.10;;
35290;SDS011;21411;50.024;19.220;2022-12-24T11:15:01;8.30;;;5.40;;
35290;SDS011;21411;50.024;19.220;2022-12-24T11:17:57;10.80;;;6.30;;
35290;SDS011;21411;50.024;19.220;2022-12-24T11:20:31;10.20;;;5.20;;
35290;SDS011;21411;50.024;19.220;2022-12-24T11:22:59;10.50;;;5.90;;
35290;SDS011;21411;50.024;19.220;2022-12-24T11:25:31;9.40;;;5.10;;
35290;SDS011;21411;50.024;19.220;2022-12-24T11:33:49;10.00;;;5.10;;
35290;SDS011;21411;50.024;19.220;2022-12-24T11:36:20;10.10;;;5.40;;
35290;SDS011;21411;50.024;19.220;2022-12-24T11:38:52;10.20;;;5.90;;
35290;SDS011;21411;50.024;19.220;2022-12-24T11:41:20;7.60;;;4.90;;
35290;SDS011;21411;50.024;19.220;2022-12-24T11:43:51;10.10;;;5.20;;
35290;SDS011;21411;50.024;19.220;2022-12-24T11:46:35;8.80;;;5.30;;
35290;SDS011;21411;50.024;19.220;2022-12-24T11:51:37;8.10;;;5.60;;
35290;SDS011;21411;50.024;19.220;2022-12-24T11:56:54;10.30;;;6.30;;
35290;SDS011;21411;50.024;19.220;2022-12-24T12:04:29;10.80;;;5.80;;
35290;SDS011;21411;50.024;19.220;2022-12-24T12:07:02;10.10;;;6.20;;
35290;SDS011;21411;50.024;19.220;2022-12-24T12:09:41;8.30;;;5.80;;
35290;SDS011;21411;50.024;19.220;2022-12-24T12:12:26;10.10;;;5.40;;
35290;SDS011;21411;50.024;19.220;2022-12-24T12:15:04;10.50;;;5.70;;
35290;SDS011;21411;50.024;19.220;2022-12-24T12:20:29;10.20;;;5.20;;
35290;SDS011;21411;50.024;19.220;2022-12-24T12:25:51;10.40;;;5.60;;
35290;SDS011;21411;50.024;19.220;2022-12-24T12:28:23;7.80;;;4.40;;
35290;SDS011;21411;50.024;19.220;2022-12-24T12:31:15;8.50;;;5.40;;
35290;SDS011;21411;50.024;19.220;2022-12-24T12:33:49;9.40;;;5.60;;
35290;SDS011;21411;50.024;19.220;2022-12-24T12:39:08;11.70;;;5.70;;
35290;SDS011;21411;50.024;19.220;2022-12-24T12:41:42;11.50;;;5.80;;
35290;SDS011;21411;50.024;19.220;2022-12-24T12:58:02;13.00;;;6.80;;
35290;SDS011;21411;50.024;19.220;2022-12-24T13:00:36;12.20;;;6.80;;
35290;SDS011;21411;50.024;19.220;2022-12-24T13:11:31;11.50;;;7.40;;
35290;SDS011;21411;50.024;19.220;2022-12-24T13:22:16;14.10;;;9.60;;
35290;SDS011;21411;50.024;19.220;2022-12-24T13:24:48;16.70;;;9.50;;
35290;SDS011;21411;50.024;19.220;2022-12-24T13:27:18;16.50;;;10.00;;
35290;SDS011;21411;50.024;19.220;2022-12-24T13:29:58;17.80;;;12.40;;
35290;SDS011;21411;50.024;19.220;2022-12-24T13:42:44;22.20;;;15.50;;
35290;SDS011;21411;50.024;19.220;2022-12-24T13:50:37;27.70;;;14.90;;
35290;SDS011;21411;50.024;19.220;2022-12-24T13:53:04;38.20;;;19.50;;
35290;SDS011;21411;50.024;19.220;2022-12-24T13:55:50;33.30;;;17.40;;
35290;SDS011;21411;50.024;19.220;2022-12-24T13:58:20;24.60;;;12.50;;
35290;SDS011;21411;50.024;19.220;2022-12-24T14:01:02;20.50;;;11.40;;
35290;SDS011;21411;50.024;19.220;2022-12-24T14:03:35;24.10;;;11.70;;
35290;SDS011;21411;50.024;19.220;2022-12-24T14:06:09;27.00;;;12.40;;
35290;SDS011;21411;50.024;19.220;2022-12-24T14:08:45;35.90;;;15.20;;
35290;SDS011;21411;50.024;19.220;2022-12-24T14:11:18;54.00;;;22.20;;
35290;SDS011;21411;50.024;19.220;2022-12-24T14:13:54;45.90;;;20.70;;
35290;SDS011;21411;50.024;19.220;2022-12-24T14:16:41;62.50;;;24.40;;
35290;SDS011;21411;50.024;19.220;2022-12-24T14:21:43;37.30;;;18.70;;
35290;SDS011;21411;50.024;19.220;2022-12-24T14:24:17;57.90;;;27.50;;
35290;SDS011;21411;50.024;19.220;2022-12-24T14:26:48;48.60;;;21.20;;
35290;SDS011;21411;50.024;19.220;2022-12-24T14:29:30;36.90;;;17.50;;
35290;SDS011;21411;50.024;19.220;2022-12-24T14:31:59;30.60;;;15.00;;
35290;SDS011;21411;50.024;19.220;2022-12-24T14:34:30;39.10;;;16.50;;
35290;SDS011;21411;50.024;19.220;2022-12-24T14:36:56;36.30;;;15.10;;
35290;SDS011;21411;50.024;19.220;2022-12-24T14:39:31;39.10;;;16.10;;
35290;SDS011;21411;50.024;19.220;2022-12-24T14:42:21;29.30;;;14.10;;
35290;SDS011;21411;50.024;19.220;2022-12-24T14:47:54;21.90;;;10.50;;
35290;SDS011;21411;50.024;19.220;2022-12-24T14:55:35;13.80;;;7.60;;
35290;SDS011;21411;50.024;19.220;2022-12-24T14:58:13;9.00;;;5.30;;
35290;SDS011;21411;50.024;19.220;2022-12-24T15:00:42;11.50;;;6.00;;
35290;SDS011;21411;50.024;19.220;2022-12-24T15:03:11;9.70;;;5.20;;
35290;SDS011;21411;50.024;19.220;2022-12-24T15:05:40;8.60;;;5.00;;
35290;SDS011;21411;50.024;19.220;2022-12-24T15:08:09;18.30;;;8.00;;
35290;SDS011;21411;50.024;19.220;2022-12-24T15:10:42;20.70;;;9.10;;
35290;SDS011;21411;50.024;19.220;2022-12-24T15:13:20;29.00;;;11.50;;
35290;SDS011;21411;50.024;19.220;2022-12-24T15:15:51;35.60;;;13.80;;
35290;SDS011;21411;50.024;19.220;2022-12-24T15:18:21;34.10;;;13.50;;
35290;SDS011;21411;50.024;19.220;2022-12-24T15:20:51;30.00;;;11.70;;
35290;SDS011;21411;50.024;19.220;2022-12-24T15:23:25;37.80;;;14.80;;
35290;SDS011;21411;50.024;19.220;2022-12-24T15:28:50;13.40;;;7.30;;
35290;SDS011;21411;50.024;19.220;2022-12-24T15:31:19;17.10;;;7.30;;
35290;SDS011;21411;50.024;19.220;2022-12-24T15:33:47;12.50;;;7.30;;
35290;SDS011;21411;50.024;19.220;2022-12-24T15:36:15;16.00;;;6.90;;
35290;SDS011;21411;50.024;19.220;2022-12-24T15:38:50;12.60;;;6.20;;
35290;SDS011;21411;50.024;19.220;2022-12-24T15:41:19;10.80;;;5.70;;
35290;SDS011;21411;50.024;19.220;2022-12-24T15:43:48;12.80;;;5.70;;
35290;SDS011;21411;50.024;19.220;2022-12-24T15:46:17;12.80;;;6.40;;
35290;SDS011;21411;50.024;19.220;2022-12-24T15:48:45;12.50;;;6.90;;
35290;SDS011;21411;50.024;19.220;2022-12-24T15:51:18;12.80;;;6.70;;
35290;SDS011;21411;50.024;19.220;2022-12-24T15:53:48;17.70;;;7.10;;
35290;SDS011;21411;50.024;19.220;2022-12-24T15:56:30;13.00;;;6.80;;
35290;SDS011;21411;50.024;19.220;2022-12-24T16:10:37;24.10;;;10.70;;
35290;SDS011;21411;50.024;19.220;2022-12-24T16:15:49;27.50;;;12.30;;
35290;SDS011;21411;50.024;19.220;2022-12-24T16:18:26;30.90;;;12.00;;
35290;SDS011;21411;50.024;19.220;2022-12-24T16:20:56;32.60;;;12.30;;
35290;SDS011;21411;50.024;19.220;2022-12-24T16:23:24;32.10;;;11.90;;
35290;SDS011;21411;50.024;19.220;2022-12-24T16:25:56;23.00;;;10.40;;
35290;SDS011;21411;50.024;19.220;2022-12-24T16:28:22;34.50;;;14.10;;
35290;SDS011;21411;50.024;19.220;2022-12-24T16:30:49;30.00;;;12.40;;
35290;SDS011;21411;50.024;19.220;2022-12-24T16:33:15;33.50;;;13.40;;
35290;SDS011;21411;50.024;19.220;2022-12-24T16:35:44;21.30;;;10.70;;
35290;SDS011;21411;50.024;19.220;2022-12-24T16:38:11;23.80;;;12.30;;
35290;SDS011;21411;50.024;19.220;2022-12-24T16:40:39;29.90;;;13.60;;
35290;SDS011;21411;50.024;19.220;2022-12-24T16:43:06;34.20;;;14.90;;
35290;SDS011;21411;50.024;19.220;2022-12-24T16:46:02;38.50;;;17.30;;
35290;SDS011;21411;50.024;19.220;2022-12-24T16:48:31;35.40;;;17.30;;
35290;SDS011;21411;50.024;19.220;2022-12-24T16:51:01;35.10;;;18.30;;
35290;SDS011;21411;50.024;19.220;2022-12-24T16:53:27;37.70;;;19.50;;
35290;SDS011;21411;50.024;19.220;2022-12-24T16:55:53;29.40;;;15.60;;
35290;SDS011;21411;50.024;19.220;2022-12-24T16:58:20;34.50;;;18.40;;
35290;SDS011;21411;50.024;19.220;2022-12-24T17:00:46;29.40;;;16.50;;
35290;SDS011;21411;50.024;19.220;2022-12-24T17:03:12;28.30;;;16.80;;
35290;SDS011;21411;50.024;19.220;2022-12-24T17:05:39;27.50;;;15.90;;